Preview of NWS' New Version of Forecast
This preview is not operational and should not be used for support decisions.

Terminal Aerodrome Forecast (TAF)

Issued by National Weather Service (NWS)

                            
000
FTUS42 KKEY 261442 AAA
TAFEYW
TAF AMD
KEYW 261442Z 2615/2712 36008KT P6SM FEW020
     FM261800 33009KT P6SM FEW020
     FM270600 33012G18KT P6SM SCT015=